Terminal Aerodrome Forecast
Issued by NWS

Home | Current Version | Previous Version | Text Only | Print | Product List | Glossary On
Versions: 1 2 3 4 5 6 7 8 9 10 11 12 13 14 15
000
FTUS45 KBOU 181344 AAA
TAFAPA
TAF AMD
KAPA 181344Z 1814/1912 21008KT P6SM BKN220
     FM181700 34007KT P6SM SCT220
     FM182200 12008KT P6SM FEW220
     FM190300 17011KT P6SM FEW220=

USA.gov is the U.S. government's official web portal to all federal, state and local government web resources and services.